Time;durP1;ratioP1;P1;durP2;ratioP2;P2;SDS_P1;SDS_P2;PMS_P1;PMS_P2;Temp;Humidity;BMP_temperature;BMP_pressure;BME280_temperature;BME280_humidity;BME280_pressure;Samples;Min_cycle;Max_cycle;Signal;HPM_P1;HPM_P2
2023/01/19 00:03:03;;;;;;;9.52;4.65;;;1.60;99.90;;;;;;9981965;28;20265;-59
2023/01/19 00:07:53;;;;;;;9.38;5.40;;;1.50;99.90;;;;;;9978302;28;20433;-60
2023/01/19 00:12:44;;;;;;;9.10;4.93;;;1.50;99.90;;;;;;9978666;28;20038;-60
2023/01/19 00:17:35;;;;;;;10.05;4.97;;;1.50;99.90;;;;;;9978636;28;20030;-59
2023/01/19 00:22:25;;;;;;;9.38;4.63;;;1.50;99.90;;;;;;9980287;28;20673;-58
2023/01/19 00:27:16;;;;;;;10.60;4.43;;;1.40;99.90;;;;;;9980814;28;20539;-59
2023/01/19 00:32:07;;;;;;;9.68;4.28;;;1.50;99.90;;;;;;9982983;28;20030;-60
2023/01/19 00:37:00;;;;;;;9.20;5.10;;;1.60;99.90;;;;;;9972121;28;20030;-60
2023/01/19 00:47:03;;;;;;;11.98;5.15;;;1.80;99.90;;;;;;9981153;28;20057;-60
2023/01/19 00:51:54;;;;;;;11.68;6.13;;;1.80;99.90;;;;;;9980796;28;20069;-60
2023/01/19 00:56:44;;;;;;;9.18;4.70;;;1.70;99.90;;;;;;9992454;28;20449;-62
2023/01/19 01:01:35;;;;;;;6.03;4.38;;;1.80;99.90;;;;;;9980337;28;20030;-62
2023/01/19 01:06:26;;;;;;;13.65;5.47;;;1.80;99.90;;;;;;9979640;28;20046;-60
2023/01/19 01:11:16;;;;;;;9.48;6.18;;;1.80;99.90;;;;;;9974054;28;20108;-60
2023/01/19 01:16:08;;;;;;;8.50;5.38;;;1.80;99.90;;;;;;9988913;28;20026;-60
2023/01/19 01:21:06;;;;;;;13.23;6.18;;;1.70;99.90;;;;;;9980451;28;20026;-58
2023/01/19 01:25:57;;;;;;;11.18;5.22;;;1.60;99.90;;;;;;9978658;28;20053;-61
2023/01/19 01:30:51;;;;;;;7.28;4.72;;;1.70;99.90;;;;;;9979255;28;20026;-59
2023/01/19 01:35:42;;;;;;;8.65;4.53;;;1.80;99.90;;;;;;9979000;28;20030;-57
2023/01/19 01:40:32;;;;;;;11.35;5.85;;;1.80;99.90;;;;;;9978178;28;20050;-60
2023/01/19 01:45:32;;;;;;;8.80;5.22;;;1.80;99.90;;;;;;9978097;28;20034;-59
2023/01/19 01:50:27;;;;;;;10.10;5.00;;;1.80;99.90;;;;;;9978334;28;20026;-59
2023/01/19 01:55:19;;;;;;;8.77;4.60;;;1.80;99.90;;;;;;9988181;28;20121;-59
2023/01/19 02:00:10;;;;;;;7.85;4.13;;;1.60;99.90;;;;;;9978607;28;20095;-60
2023/01/19 02:05:05;;;;;;;9.00;5.18;;;1.60;99.90;;;;;;9978060;28;20038;-60
2023/01/19 02:15:06;;;;;;;8.88;4.97;;;1.70;99.90;;;;;;9977921;28;20077;-62
2023/01/19 02:19:56;;;;;;;10.68;5.55;;;1.60;99.90;;;;;;9992022;28;20023;-60
2023/01/19 02:24:48;;;;;;;11.45;5.65;;;1.70;99.90;;;;;;9977795;28;20026;-60
2023/01/19 02:29:39;;;;;;;10.02;5.55;;;1.70;99.90;;;;;;9979494;28;20102;-60
2023/01/19 02:34:31;;;;;;;11.75;4.45;;;1.70;99.90;;;;;;9977399;28;20027;-60
2023/01/19 02:39:41;;;;;;;10.77;4.28;;;1.70;99.90;;;;;;9977632;28;20085;-58
2023/01/19 02:44:33;;;;;;;11.55;4.40;;;1.70;99.90;;;;;;9977222;28;20517;-60
2023/01/19 02:49:27;;;;;;;8.40;5.05;;;1.80;99.90;;;;;;9986148;28;20041;-59
2023/01/19 02:54:19;;;;;;;11.52;5.53;;;1.80;99.90;;;;;;9992652;28;20418;-60
2023/01/19 02:59:40;;;;;;;8.32;4.03;;;1.80;99.90;;;;;;9987603;28;20465;-60
2023/01/19 03:04:56;;;;;;;12.13;5.15;;;1.60;99.90;;;;;;9984496;28;20074;-60
2023/01/19 03:09:54;;;;;;;9.77;4.95;;;1.50;99.90;;;;;;9989890;28;20030;-58
2023/01/19 03:14:47;;;;;;;11.63;4.40;;;1.50;99.90;;;;;;9984164;28;20030;-60
2023/01/19 03:19:40;;;;;;;8.00;4.40;;;1.50;99.90;;;;;;9984212;28;20509;-60
2023/01/19 03:24:36;;;;;;;11.60;4.45;;;1.40;99.90;;;;;;9983659;28;20026;-60
2023/01/19 03:29:30;;;;;;;5.25;3.63;;;1.30;99.90;;;;;;9985587;28;20034;-59
2023/01/19 03:34:22;;;;;;;11.73;5.00;;;1.30;99.90;;;;;;9982974;28;20030;-58
2023/01/19 03:39:16;;;;;;;8.32;3.80;;;1.30;99.90;;;;;;9987940;28;20030;-59
2023/01/19 03:44:10;;;;;;;8.93;3.95;;;1.30;99.90;;;;;;9982619;28;20060;-58
2023/01/19 03:49:01;;;;;;;8.60;4.03;;;1.30;99.90;;;;;;9983477;28;20280;-60
2023/01/19 03:53:52;;;;;;;6.07;3.83;;;1.20;99.90;;;;;;9981739;28;20265;-58
2023/01/19 03:58:42;;;;;;;8.40;4.68;;;1.20;99.90;;;;;;9983071;28;20045;-60
2023/01/19 04:03:33;;;;;;;11.07;4.35;;;1.20;99.90;;;;;;9979575;28;20118;-59
2023/01/19 04:08:23;;;;;;;8.35;3.63;;;1.10;99.90;;;;;;9978732;28;20089;-60
2023/01/19 04:13:14;;;;;;;7.80;4.13;;;1.20;99.90;;;;;;9981648;28;20030;-60
2023/01/19 04:18:05;;;;;;;8.00;3.58;;;1.10;99.90;;;;;;9981248;28;20026;-61
2023/01/19 04:23:00;;;;;;;8.45;3.90;;;1.00;99.90;;;;;;9981095;28;20520;-58
2023/01/19 04:27:52;;;;;;;10.07;3.70;;;1.10;99.90;;;;;;9981239;28;20038;-61
2023/01/19 04:32:43;;;;;;;6.97;3.47;;;1.20;99.90;;;;;;9983124;28;20038;-60
2023/01/19 04:37:33;;;;;;;7.63;3.80;;;1.30;99.90;;;;;;9980423;28;20031;-60
2023/01/19 04:42:24;;;;;;;8.30;4.05;;;1.30;99.90;;;;;;9980555;28;20515;-61
2023/01/19 04:47:14;;;;;;;9.32;4.32;;;1.30;99.90;;;;;;9980748;28;20034;-60
2023/01/19 04:52:05;;;;;;;9.00;4.22;;;1.20;99.90;;;;;;9980399;28;20034;-59
2023/01/19 04:56:56;;;;;;;7.63;3.67;;;1.20;99.90;;;;;;9974937;28;20114;-58
2023/01/19 05:01:47;;;;;;;6.03;3.75;;;1.30;99.90;;;;;;9982769;28;20231;-60
2023/01/19 05:06:37;;;;;;;10.57;4.28;;;1.20;99.90;;;;;;9979705;28;20030;-60
2023/01/19 05:11:28;;;;;;;10.15;4.50;;;1.20;99.90;;;;;;9972833;28;20035;-59
2023/01/19 05:16:19;;;;;;;8.85;4.13;;;1.10;99.90;;;;;;9986587;28;20130;-60
2023/01/19 05:21:09;;;;;;;7.90;4.03;;;1.10;99.90;;;;;;9980025;28;20110;-59
2023/01/19 05:26:01;;;;;;;7.25;3.78;;;1.10;99.90;;;;;;9979006;28;20038;-60
2023/01/19 05:30:53;;;;;;;10.35;4.18;;;1.20;99.90;;;;;;9980571;28;20030;-59
2023/01/19 05:35:44;;;;;;;7.30;3.70;;;1.20;99.90;;;;;;9979010;28;20822;-62
2023/01/19 05:40:34;;;;;;;6.90;3.42;;;1.10;99.90;;;;;;9979048;28;20050;-61
2023/01/19 05:45:27;;;;;;;8.23;4.93;;;1.20;99.90;;;;;;9978383;28;20022;-61
2023/01/19 05:50:17;;;;;;;8.00;4.45;;;1.20;99.90;;;;;;9979955;28;20523;-59
2023/01/19 05:55:08;;;;;;;8.93;3.92;;;1.20;99.90;;;;;;9980966;28;20040;-58
2023/01/19 05:59:59;;;;;;;8.07;4.22;;;1.40;99.90;;;;;;9977347;28;20023;-61
2023/01/19 06:04:50;;;;;;;8.10;3.80;;;1.40;99.90;;;;;;9975884;28;20072;-60
2023/01/19 06:09:40;;;;;;;9.73;4.72;;;1.40;99.90;;;;;;9975031;28;20042;-60
2023/01/19 06:14:31;;;;;;;11.15;4.32;;;1.40;99.90;;;;;;9975605;28;20421;-60
2023/01/19 06:19:22;;;;;;;9.30;4.22;;;1.50;99.90;;;;;;9991490;28;20083;-60
2023/01/19 06:24:12;;;;;;;11.02;4.43;;;1.50;99.90;;;;;;9977462;28;20041;-59
2023/01/19 06:29:03;;;;;;;10.77;5.28;;;1.50;99.90;;;;;;9977759;28;20045;-59
2023/01/19 06:33:54;;;;;;;12.05;4.57;;;1.50;99.90;;;;;;9978021;28;20572;-57
2023/01/19 06:38:45;;;;;;;6.30;4.20;;;1.50;99.90;;;;;;9968484;28;20050;-59
2023/01/19 06:43:35;;;;;;;8.00;4.22;;;1.50;99.90;;;;;;9976455;28;20034;-60
2023/01/19 06:48:26;;;;;;;10.50;4.95;;;1.40;99.90;;;;;;9976747;28;20039;-59
2023/01/19 06:53:19;;;;;;;9.00;4.00;;;1.40;99.90;;;;;;9986222;28;20504;-60
2023/01/19 06:58:11;;;;;;;12.70;3.85;;;1.40;99.90;;;;;;9982024;28;20531;-60
2023/01/19 07:03:01;;;;;;;12.57;4.63;;;1.50;99.90;;;;;;9967230;28;20023;-59
2023/01/19 07:07:56;;;;;;;9.02;4.47;;;1.50;99.90;;;;;;9976371;28;20525;-60
2023/01/19 07:12:47;;;;;;;6.65;3.13;;;1.50;99.90;;;;;;9975343;28;20060;-60
2023/01/19 07:17:37;;;;;;;11.93;4.93;;;1.50;99.90;;;;;;9975985;28;20509;-60
2023/01/19 07:22:28;;;;;;;15.88;5.45;;;1.50;99.90;;;;;;9976495;28;20412;-61
2023/01/19 07:27:19;;;;;;;8.88;4.68;;;1.60;99.90;;;;;;9970746;28;20042;-59
2023/01/19 07:32:11;;;;;;;8.30;4.57;;;1.50;99.90;;;;;;9984248;28;20041;-60
2023/01/19 07:37:03;;;;;;;11.05;4.35;;;1.60;99.90;;;;;;9982878;28;20026;-61
2023/01/19 07:41:54;;;;;;;8.68;4.05;;;1.60;99.90;;;;;;9983074;28;20501;-57
2023/01/19 07:46:44;;;;;;;7.68;4.13;;;1.60;99.90;;;;;;9982742;28;20046;-62
2023/01/19 07:51:35;;;;;;;9.70;3.67;;;1.70;99.90;;;;;;9976986;28;20049;-60
2023/01/19 07:56:28;;;;;;;7.07;3.55;;;1.80;99.90;;;;;;9991720;28;20026;-59
2023/01/19 08:01:19;;;;;;;11.00;3.85;;;1.80;99.90;;;;;;9988068;28;20227;-60
2023/01/19 08:06:21;;;;;;;9.00;3.85;;;1.90;99.90;;;;;;9980496;28;20041;-60
2023/01/19 08:11:12;;;;;;;9.57;4.00;;;1.90;99.90;;;;;;9978698;28;20027;-60
2023/01/19 08:16:03;;;;;;;9.43;3.72;;;1.90;99.90;;;;;;9980198;28;20038;-60
2023/01/19 08:20:54;;;;;;;7.53;4.57;;;1.90;99.90;;;;;;9981784;28;20274;-58
2023/01/19 08:25:45;;;;;;;8.13;3.72;;;1.80;99.90;;;;;;9980969;28;20034;-60
2023/01/19 08:30:37;;;;;;;9.02;4.18;;;1.90;99.90;;;;;;9982945;28;20035;-60
2023/01/19 08:35:31;;;;;;;10.52;4.05;;;1.90;99.90;;;;;;9981315;28;20030;-66
2023/01/19 08:40:22;;;;;;;10.73;4.47;;;2.00;99.90;;;;;;9981011;28;20057;-59
2023/01/19 08:45:13;;;;;;;8.82;4.10;;;2.20;99.90;;;;;;9980425;28;20030;-59
2023/01/19 08:50:03;;;;;;;9.77;3.90;;;2.30;99.90;;;;;;9981463;28;20038;-61
2023/01/19 08:54:54;;;;;;;8.73;3.30;;;2.40;99.90;;;;;;10002223;28;20026;-60
2023/01/19 08:59:46;;;;;;;7.45;4.28;;;2.50;99.90;;;;;;9985965;28;20030;-57
2023/01/19 09:04:36;;;;;;;6.15;4.20;;;2.60;99.90;;;;;;9979872;28;20030;-67
2023/01/19 09:09:27;;;;;;;7.82;4.07;;;2.50;99.90;;;;;;9986486;28;20410;-65
2023/01/19 09:14:18;;;;;;;6.75;3.45;;;2.60;99.90;;;;;;9979814;28;20038;-67
2023/01/19 09:19:08;;;;;;;6.82;3.40;;;2.70;99.90;;;;;;9980117;28;20037;-66
2023/01/19 09:23:59;;;;;;;6.15;4.05;;;2.70;99.90;;;;;;9979451;28;20433;-66
2023/01/19 09:28:50;;;;;;;8.18;3.40;;;2.70;99.90;;;;;;9979843;28;20030;-63
2023/01/19 09:33:41;;;;;;;7.22;4.05;;;2.80;99.90;;;;;;9980754;28;20404;-62
2023/01/19 09:38:31;;;;;;;8.55;4.63;;;2.90;99.90;;;;;;9983371;28;20492;-61
2023/01/19 09:43:34;;;;;;;7.35;3.70;;;3.10;99.90;;;;;;9987835;28;20056;-62
2023/01/19 09:48:48;;;;;;;6.68;3.33;;;3.00;99.90;;;;;;9988960;28;20128;-63
2023/01/19 09:53:51;;;;;;;5.95;3.70;;;2.80;99.90;;;;;;9987893;28;20025;-60
2023/01/19 09:58:42;;;;;;;6.57;3.15;;;2.90;99.90;;;;;;9970682;28;20038;-64
2023/01/19 10:03:40;;;;;;;7.57;3.55;;;2.90;99.90;;;;;;9977972;28;20026;-70
2023/01/19 10:08:36;;;;;;;7.88;4.38;;;2.90;99.90;;;;;;9978173;28;20042;-68
2023/01/19 10:13:35;;;;;;;3.97;2.47;;;2.90;99.90;;;;;;9981554;28;20122;-68
2023/01/19 10:18:42;;;;;;;5.13;3.05;;;3.00;99.90;;;;;;9983737;28;20105;-64
2023/01/19 10:23:40;;;;;;;8.95;3.78;;;3.10;99.90;;;;;;9977706;28;20230;-65
2023/01/19 10:28:31;;;;;;;6.78;3.30;;;3.40;99.90;;;;;;9971409;28;20465;-63
2023/01/19 10:33:26;;;;;;;7.20;3.72;;;3.40;99.90;;;;;;9983780;28;20019;-66
2023/01/19 10:38:21;;;;;;;5.07;2.72;;;3.60;99.90;;;;;;9964836;28;20034;-63
2023/01/19 10:43:42;;;;;;;12.23;4.78;;;3.50;99.90;;;;;;9976323;28;20126;-64
2023/01/19 10:48:40;;;;;;;7.82;4.53;;;3.50;99.90;;;;;;9977338;28;20089;-67
2023/01/19 10:53:31;;;;;;;7.05;3.85;;;3.60;99.90;;;;;;9974674;28;20030;-65
2023/01/19 10:58:29;;;;;;;8.55;4.03;;;3.60;99.90;;;;;;9980145;28;20022;-62
2023/01/19 11:03:30;;;;;;;6.47;3.80;;;3.50;99.90;;;;;;9981154;28;20547;-62
2023/01/19 11:08:27;;;;;;;6.00;3.25;;;3.50;99.90;;;;;;9980263;28;20042;-62
2023/01/19 11:13:18;;;;;;;9.10;4.20;;;3.80;99.90;;;;;;9983835;28;20037;-59
2023/01/19 11:18:30;;;;;;;9.20;3.72;;;4.00;99.90;;;;;;9983851;28;20030;-62
2023/01/19 11:23:27;;;;;;;7.53;4.03;;;4.20;99.90;;;;;;9984613;28;20045;-67
2023/01/19 11:28:24;;;;;;;6.53;3.90;;;4.20;99.90;;;;;;9983738;28;20524;-61
2023/01/19 11:33:35;;;;;;;7.00;3.72;;;4.30;99.90;;;;;;9990495;28;20029;-60
2023/01/19 11:38:26;;;;;;;7.07;4.15;;;4.50;99.90;;;;;;9988296;28;20053;-64
2023/01/19 11:43:17;;;;;;;7.70;4.57;;;4.50;99.90;;;;;;9982825;28;20047;-66
2023/01/19 11:48:16;;;;;;;8.15;3.92;;;4.50;99.90;;;;;;9981938;28;20042;-64
2023/01/19 11:53:23;;;;;;;8.70;4.05;;;4.50;99.90;;;;;;9977470;28;20105;-65
2023/01/19 11:58:15;;;;;;;7.43;4.07;;;4.60;99.90;;;;;;9986326;28;20150;-63
2023/01/19 12:03:16;;;;;;;5.90;3.30;;;4.40;99.90;;;;;;9978468;28;20050;-59
2023/01/19 12:08:14;;;;;;;6.60;3.35;;;4.10;99.90;;;;;;9980097;28;20527;-60
2023/01/19 12:13:05;;;;;;;10.73;3.80;;;4.00;99.90;;;;;;9985559;28;20520;-59
2023/01/19 12:17:59;;;;;;;6.95;3.90;;;3.90;99.90;;;;;;9981449;28;20034;-61
2023/01/19 12:23:11;;;;;;;5.60;3.60;;;3.90;99.90;;;;;;9981434;28;20734;-59
2023/01/19 12:28:02;;;;;;;12.98;4.90;;;3.90;99.90;;;;;;9972019;28;20140;-58
2023/01/19 12:33:34;;;;;;;6.22;3.85;;;3.80;99.90;;;;;;9981160;28;20109;-57
2023/01/19 12:39:00;;;;;;;7.57;4.03;;;3.50;99.90;;;;;;9985417;28;20367;-57
2023/01/19 12:44:09;;;;;;;8.82;4.35;;;3.60;99.90;;;;;;9983646;28;20041;-60
2023/01/19 12:49:22;;;;;;;6.80;4.22;;;3.40;99.90;;;;;;9977937;28;20038;-60
2023/01/19 12:54:29;;;;;;;9.88;4.47;;;3.30;99.90;;;;;;9976194;28;20085;-60
2023/01/19 12:59:24;;;;;;;;;;;3.40;99.90;;;;;;9980325;28;20740;-61
2023/01/19 13:04:32;;;;;;;6.13;3.63;;;3.40;99.90;;;;;;9979201;28;19944;-60
2023/01/19 13:09:33;;;;;;;8.00;4.35;;;3.30;99.90;;;;;;9982735;28;20439;-60
2023/01/19 13:14:36;;;;;;;9.32;3.95;;;3.30;99.90;;;;;;9979009;28;20473;-61
2023/01/19 13:19:35;;;;;;;10.05;3.83;;;3.40;99.90;;;;;;9978594;28;20113;-60
2023/01/19 13:25:04;;;;;;;6.78;3.50;;;3.50;99.90;;;;;;9977530;28;20031;-61
2023/01/19 13:29:55;;;;;;;7.90;3.80;;;3.70;99.90;;;;;;9981325;28;20057;-60
2023/01/19 13:34:57;;;;;;;6.07;3.95;;;3.70;99.90;;;;;;9978721;28;20449;-60
2023/01/19 13:39:52;;;;;;;7.15;4.03;;;3.70;99.90;;;;;;9998546;28;20551;-61
2023/01/19 13:44:51;;;;;;;8.13;3.40;;;3.70;99.90;;;;;;9978589;28;20053;-62
2023/01/19 13:49:45;;;;;;;9.30;4.07;;;3.90;99.90;;;;;;9979783;28;20445;-60
2023/01/19 13:54:36;;;;;;;7.60;4.00;;;3.90;99.90;;;;;;9977838;28;20046;-60
2023/01/19 13:59:26;;;;;;;7.40;4.47;;;4.00;99.90;;;;;;9977782;28;20487;-58
2023/01/19 14:04:30;;;;;;;5.57;3.80;;;4.00;99.90;;;;;;9973679;28;20070;-63
2023/01/19 14:09:22;;;;;;;7.07;4.20;;;3.90;99.90;;;;;;9977663;28;20470;-61
2023/01/19 14:14:23;;;;;;;7.70;4.50;;;4.00;99.90;;;;;;9977114;28;20197;-63
2023/01/19 14:19:14;;;;;;;8.00;4.30;;;4.10;99.90;;;;;;9977723;28;20122;-63
2023/01/19 14:24:15;;;;;;;10.93;5.57;;;4.10;99.90;;;;;;9977494;28;20435;-61
2023/01/19 14:29:08;;;;;;;9.20;4.18;;;4.10;99.90;;;;;;9989060;28;20500;-61
2023/01/19 14:33:59;;;;;;;10.88;5.38;;;4.20;99.90;;;;;;9998232;28;20036;-61
2023/01/19 14:38:51;;;;;;;7.60;4.35;;;4.10;99.90;;;;;;9992452;28;20040;-60
2023/01/19 14:43:43;;;;;;;12.82;4.93;;;4.10;99.90;;;;;;10009715;28;20095;-60
2023/01/19 14:48:34;;;;;;;10.30;4.55;;;4.10;99.90;;;;;;9986604;28;20125;-62
2023/01/19 14:53:27;;;;;;;8.68;3.92;;;4.10;99.90;;;;;;9984471;28;20148;-61
2023/01/19 14:58:20;;;;;;;8.05;4.55;;;4.10;99.90;;;;;;9978051;28;20492;-61
2023/01/19 15:03:11;;;;;;;10.10;3.70;;;4.10;99.90;;;;;;10000707;28;20053;-61
2023/01/19 15:08:03;;;;;;;7.75;4.40;;;4.10;99.90;;;;;;9990891;28;20489;-57
2023/01/19 15:12:54;;;;;;;6.47;3.72;;;4.10;99.90;;;;;;9967938;28;20034;-58
2023/01/19 15:17:45;;;;;;;6.20;4.18;;;4.10;99.90;;;;;;9975784;28;20042;-59
2023/01/19 15:22:36;;;;;;;7.35;4.60;;;4.00;99.90;;;;;;9975377;28;20073;-59
2023/01/19 15:27:27;;;;;;;8.30;4.18;;;4.00;99.90;;;;;;9981096;28;20042;-58
2023/01/19 15:32:17;;;;;;;9.82;4.72;;;4.10;99.90;;;;;;9991760;28;20047;-63
2023/01/19 15:37:08;;;;;;;7.90;4.53;;;4.10;99.90;;;;;;9988981;28;20030;-62
2023/01/19 15:41:59;;;;;;;5.32;3.35;;;3.90;99.90;;;;;;9999547;28;20191;-60
2023/01/19 15:46:49;;;;;;;10.63;4.90;;;3.80;99.90;;;;;;9994271;28;20081;-57
2023/01/19 15:51:40;;;;;;;10.43;4.70;;;4.00;99.90;;;;;;9981859;28;20507;-60
2023/01/19 15:56:31;;;;;;;7.15;4.03;;;3.90;99.90;;;;;;9996102;28;20482;-62
2023/01/19 16:01:29;;;;;;;6.63;3.78;;;3.90;99.90;;;;;;9997351;28;20018;-65
2023/01/19 16:06:20;;;;;;;8.95;4.07;;;3.90;99.90;;;;;;9985221;28;20038;-65
2023/01/19 16:11:14;;;;;;;8.02;4.15;;;3.90;99.90;;;;;;9980119;28;20030;-55
2023/01/19 16:16:07;;;;;;;7.30;3.67;;;3.90;99.90;;;;;;9981934;28;20085;-65
2023/01/19 16:20:58;;;;;;;10.00;4.00;;;3.70;99.90;;;;;;9981488;28;20096;-62
2023/01/19 16:26:03;;;;;;;9.27;3.72;;;3.80;99.90;;;;;;9981666;28;20069;-61
2023/01/19 16:30:54;;;;;;;8.37;4.60;;;3.80;99.90;;;;;;9989084;28;20030;-59
2023/01/19 16:35:44;;;;;;;11.10;6.15;;;3.70;99.90;;;;;;9990174;28;20254;-58
2023/01/19 16:40:35;;;;;;;19.60;7.65;;;3.70;99.90;;;;;;9982254;28;20477;-60
2023/01/19 16:45:26;;;;;;;13.38;5.53;;;3.80;99.90;;;;;;9981589;28;20042;-63
2023/01/19 16:50:17;;;;;;;6.80;3.92;;;3.80;99.90;;;;;;9982803;28;20066;-63
2023/01/19 16:55:10;;;;;;;8.27;4.75;;;3.80;99.90;;;;;;9987558;28;20052;-61
2023/01/19 17:00:01;;;;;;;11.77;5.38;;;3.70;99.90;;;;;;9980711;28;20445;-60
2023/01/19 17:04:51;;;;;;;8.15;4.93;;;3.80;99.90;;;;;;9980080;28;20038;-61
2023/01/19 17:09:42;;;;;;;17.38;7.78;;;3.80;99.90;;;;;;9992899;28;20038;-62
2023/01/19 17:14:33;;;;;;;23.65;8.32;;;3.70;99.90;;;;;;9979834;28;20404;-58
2023/01/19 17:19:23;;;;;;;8.93;5.40;;;3.70;99.90;;;;;;9980051;28;20030;-56
2023/01/19 17:24:15;;;;;;;11.55;6.22;;;3.70;99.90;;;;;;9979231;28;20030;-56
2023/01/19 17:29:07;;;;;;;9.32;4.68;;;3.70;99.90;;;;;;9979777;28;20042;-56
2023/01/19 17:33:59;;;;;;;9.45;4.75;;;3.70;99.90;;;;;;9979607;28;20541;-54
2023/01/19 17:38:52;;;;;;;13.40;5.13;;;3.70;99.90;;;;;;9975891;28;20046;-54
2023/01/19 17:43:43;;;;;;;6.82;3.70;;;3.60;99.90;;;;;;9979202;28;20053;-53
2023/01/19 17:48:53;;;;;;;6.07;3.45;;;3.60;99.90;;;;;;9964520;28;20054;-57
2023/01/19 17:53:44;;;;;;;7.20;3.83;;;3.60;99.90;;;;;;9983068;28;20049;-54
2023/01/19 17:58:34;;;;;;;5.90;3.22;;;3.50;99.90;;;;;;9978474;28;20030;-59
2023/01/19 18:03:25;;;;;;;6.35;3.55;;;3.50;99.90;;;;;;9970727;28;20078;-53
2023/01/19 18:08:15;;;;;;;7.28;3.75;;;3.50;99.90;;;;;;9978013;28;20034;-62
2023/01/19 18:13:06;;;;;;;9.80;3.88;;;3.50;99.90;;;;;;9976834;28;20392;-65
2023/01/19 18:17:57;;;;;;;7.38;3.05;;;3.50;99.90;;;;;;9964277;28;20042;-64
2023/01/19 18:22:47;;;;;;;7.82;3.13;;;3.50;99.90;;;;;;9977522;28;20488;-58
2023/01/19 18:27:38;;;;;;;7.10;3.67;;;3.50;99.90;;;;;;9978392;28;20038;-60
2023/01/19 18:32:29;;;;;;;7.45;3.53;;;3.40;99.90;;;;;;9977198;28;20033;-59
2023/01/19 18:37:19;;;;;;;7.75;3.90;;;3.50;99.90;;;;;;9980365;28;20026;-64
2023/01/19 18:42:11;;;;;;;9.63;3.90;;;3.50;99.90;;;;;;9977070;28;20047;-62
2023/01/19 18:47:01;;;;;;;7.93;4.03;;;3.50;99.90;;;;;;9976852;28;20040;-59
2023/01/19 18:51:52;;;;;;;9.23;5.15;;;3.40;99.90;;;;;;9981492;28;20036;-58
2023/01/19 18:56:43;;;;;;;8.32;4.43;;;3.40;99.90;;;;;;9976847;28;20027;-64
2023/01/19 19:01:34;;;;;;;9.25;4.53;;;3.50;99.90;;;;;;9977561;28;20034;-55
2023/01/19 19:06:26;;;;;;;7.10;4.20;;;3.50;99.90;;;;;;9976708;28;20516;-56
2023/01/19 19:11:17;;;;;;;7.13;4.97;;;3.50;99.90;;;;;;9976625;28;20081;-61
2023/01/19 19:16:09;;;;;;;7.22;4.25;;;3.30;99.90;;;;;;9976876;28;20037;-64
2023/01/19 19:21:05;;;;;;;9.13;4.35;;;3.30;99.90;;;;;;9965310;28;20027;-65
2023/01/19 19:26:01;;;;;;;10.77;4.68;;;3.30;99.90;;;;;;9982158;28;20029;-66
2023/01/19 19:31:05;;;;;;;7.80;4.53;;;3.30;99.90;;;;;;9967669;28;20030;-64
2023/01/19 19:35:57;;;;;;;8.13;4.38;;;3.20;99.90;;;;;;9983588;28;20036;-63
2023/01/19 19:40:47;;;;;;;8.32;4.47;;;3.30;99.90;;;;;;9983758;28;20042;-65
2023/01/19 19:45:38;;;;;;;10.65;5.25;;;3.40;99.90;;;;;;9983574;28;20058;-65
2023/01/19 19:50:29;;;;;;;8.43;4.63;;;3.40;99.90;;;;;;9989212;28;20084;-66
2023/01/19 19:55:22;;;;;;;9.93;5.15;;;3.40;99.90;;;;;;9983741;28;20027;-71
2023/01/19 20:00:13;;;;;;;13.38;6.22;;;3.40;99.90;;;;;;9983090;28;20041;-62
2023/01/19 20:05:04;;;;;;;10.55;4.90;;;3.40;99.90;;;;;;9983305;28;20528;-66
2023/01/19 20:09:55;;;;;;;7.38;4.57;;;3.40;99.90;;;;;;9979316;28;20124;-61
2023/01/19 20:14:45;;;;;;;7.28;4.25;;;3.30;99.90;;;;;;9988506;28;20569;-56
2023/01/19 20:19:36;;;;;;;10.80;5.13;;;3.30;99.90;;;;;;9985995;28;20532;-57
2023/01/19 20:24:26;;;;;;;5.55;3.90;;;3.40;99.90;;;;;;9981645;28;20177;-60
2023/01/19 20:29:19;;;;;;;9.15;5.32;;;3.50;99.90;;;;;;9981683;28;20842;-57
2023/01/19 20:34:12;;;;;;;9.43;4.65;;;3.40;99.90;;;;;;9975258;28;20030;-57
2023/01/19 20:39:07;;;;;;;7.35;4.72;;;3.40;99.90;;;;;;9979046;28;20094;-51
2023/01/19 20:43:57;;;;;;;9.15;4.57;;;3.40;99.90;;;;;;9980614;28;20580;-54
2023/01/19 20:48:51;;;;;;;7.15;4.28;;;3.30;99.90;;;;;;9979698;28;20046;-60
2023/01/19 20:53:42;;;;;;;5.18;3.60;;;3.30;99.90;;;;;;9988686;28;20057;-53
2023/01/19 20:58:33;;;;;;;5.72;4.07;;;3.30;99.90;;;;;;9981520;28;20023;-57
2023/01/19 21:03:23;;;;;;;5.63;3.67;;;3.30;99.90;;;;;;9980069;28;20053;-60
2023/01/19 21:08:15;;;;;;;8.88;4.10;;;3.30;99.90;;;;;;9978356;28;20540;-67
2023/01/19 21:13:05;;;;;;;8.10;3.75;;;3.30;99.90;;;;;;9982439;28;20038;-60
2023/01/19 21:17:56;;;;;;;5.65;3.42;;;3.30;99.90;;;;;;9980621;28;20081;-61
2023/01/19 21:22:47;;;;;;;6.75;4.10;;;3.40;99.90;;;;;;9967726;28;20022;-63
2023/01/19 21:27:37;;;;;;;8.70;4.30;;;3.40;99.90;;;;;;9979948;28;20038;-60
2023/01/19 21:32:28;;;;;;;8.00;4.38;;;3.40;99.90;;;;;;9978549;28;20042;-58
2023/01/19 21:37:19;;;;;;;7.20;4.40;;;3.40;99.90;;;;;;9982652;28;20100;-57
2023/01/19 21:42:10;;;;;;;4.95;4.10;;;3.30;99.90;;;;;;9979249;28;20128;-60
2023/01/19 21:47:00;;;;;;;8.70;3.75;;;3.30;99.90;;;;;;9964362;28;20093;-59
2023/01/19 21:51:51;;;;;;;7.05;3.75;;;3.30;99.90;;;;;;9983527;28;20034;-59
2023/01/19 21:56:42;;;;;;;6.40;3.85;;;3.40;99.90;;;;;;9978294;28;20037;-57
2023/01/19 22:01:34;;;;;;;4.80;3.40;;;3.30;99.90;;;;;;9991381;28;20396;-54
2023/01/19 22:06:25;;;;;;;5.32;3.78;;;3.30;99.90;;;;;;9979452;28;20045;-56
2023/01/19 22:11:18;;;;;;;6.65;4.28;;;3.30;99.90;;;;;;9978141;28;20085;-51
2023/01/19 22:16:14;;;;;;;7.65;4.18;;;3.20;99.90;;;;;;9963438;28;20034;-59
2023/01/19 22:21:11;;;;;;;;;;;3.20;99.90;;;;;;9978698;28;20039;-57
2023/01/19 22:26:02;;;;;;;;;;;3.20;99.90;;;;;;9974397;28;19912;-58
2023/01/19 22:30:53;;;;;;;9.50;3.75;;;3.20;99.90;;;;;;9978002;28;20001;-55
2023/01/19 22:35:43;;;;;;;7.93;4.57;;;3.30;99.90;;;;;;9973015;28;20457;-58
2023/01/19 22:40:34;;;;;;;6.70;3.80;;;3.20;99.90;;;;;;9967522;28;20068;-57
2023/01/19 22:45:24;;;;;;;9.25;5.30;;;3.20;99.90;;;;;;9977648;28;20077;-62
2023/01/19 22:50:15;;;;;;;9.30;5.57;;;3.10;99.90;;;;;;9977308;28;20121;-56
2023/01/19 22:55:06;;;;;;;8.73;4.32;;;3.20;99.90;;;;;;9976697;28;20560;-57
2023/01/19 22:59:57;;;;;;;12.13;6.25;;;3.30;99.90;;;;;;9979763;28;20102;-57
2023/01/19 23:04:47;;;;;;;9.35;5.25;;;3.30;99.90;;;;;;9985636;28;20465;-53
2023/01/19 23:09:38;;;;;;;13.07;5.60;;;3.10;99.90;;;;;;9983585;28;20091;-54
2023/01/19 23:14:29;;;;;;;12.52;6.80;;;3.10;99.90;;;;;;9990085;28;20026;-54
2023/01/19 23:19:19;;;;;;;10.73;5.97;;;3.00;99.90;;;;;;9972768;28;20033;-56
2023/01/19 23:24:11;;;;;;;12.00;5.18;;;3.00;99.90;;;;;;9984517;28;20097;-58
2023/01/19 23:29:01;;;;;;;11.13;5.95;;;3.00;99.90;;;;;;9993723;28;20038;-56
2023/01/19 23:33:57;;;;;;;9.65;5.90;;;2.90;99.90;;;;;;9983821;28;20018;-56
2023/01/19 23:38:50;;;;;;;8.17;4.60;;;2.90;99.90;;;;;;9983530;28;20050;-62
2023/01/19 23:43:40;;;;;;;14.05;5.82;;;3.00;99.90;;;;;;9984673;28;20111;-54
2023/01/19 23:48:33;;;;;;;8.43;4.97;;;3.10;99.90;;;;;;9985278;28;20026;-55
2023/01/19 23:53:25;;;;;;;7.30;4.88;;;3.10;99.90;;;;;;9982994;28;20026;-56
2023/01/19 23:58:19;;;;;;;12.25;5.53;;;3.30;99.90;;;;;;9983246;28;20113;-57
